Polvadera, New Mexico
Current Conditions -  °F | °C
As of 8:15 AM on Monday 24 Nov 2014 (Local Time) from KONM Reporting Station
Clear Clear  
Wind Chill: 29°   Ceiling: Unl
Heat Index: 35°   Visibility: 10mi
Dew Point:   Wind: 7mph
Humidity: 25%   Direction: 50°NE
Pressure: 30.18"   Gusts: NA
Location:  34.2°N, 106.92°W
Report Text: KONM 241515Z AUTO 05006KT 10SM CLR 02/M17 A3018 RMK AO2 T00161167
Loading
Personal Weather Stations






























Interactive Weather Map New forecast layout! Learn more

10-Day Weather Forecast

Advertisements
Track Severe Weather on mobile